createdAt,value
2022-11-02T00:00:28.643Z,12.26
2022-11-02T00:02:58.089Z,11.72
2022-11-02T00:05:28.633Z,11.46
2022-11-02T00:07:56.646Z,11.34
2022-11-02T00:10:25.919Z,11.44
2022-11-02T00:12:54.065Z,11.42
2022-11-02T00:15:22.316Z,11.66
2022-11-02T00:17:54.160Z,11.38
2022-11-02T00:20:24.246Z,11.71
2022-11-02T00:22:54.241Z,11.93
2022-11-02T00:25:24.755Z,12.01
2022-11-02T00:27:53.057Z,11.59
2022-11-02T00:30:20.931Z,11.25
2022-11-02T00:32:48.700Z,11.26
2022-11-02T00:35:16.852Z,10.90
2022-11-02T00:37:45.937Z,11.41
2022-11-02T00:40:13.918Z,11.58
2022-11-02T00:42:41.722Z,11.70
2022-11-02T00:45:10.751Z,11.47
2022-11-02T00:47:38.907Z,11.24
2022-11-02T00:50:07.883Z,11.49
2022-11-02T00:52:39.774Z,10.99
2022-11-02T00:55:11.333Z,11.39
2022-11-02T00:57:43.018Z,11.63
2022-11-02T01:00:12.219Z,11.74
2022-11-02T01:02:40.317Z,11.60
2022-11-02T01:05:10.124Z,11.68
2022-11-02T01:07:37.965Z,11.54
2022-11-02T01:10:07.178Z,11.53
2022-11-02T01:12:37.638Z,11.73
2022-11-02T01:15:06.690Z,11.69
2022-11-02T01:17:34.588Z,11.47
2022-11-02T01:20:06.318Z,11.18
2022-11-02T01:22:34.030Z,10.66
2022-11-02T01:25:04.206Z,11.21
2022-11-02T01:27:32.048Z,11.04
2022-11-02T01:30:03.774Z,11.49
2022-11-02T01:32:31.758Z,11.67
2022-11-02T01:35:02.698Z,11.55
2022-11-02T01:37:30.435Z,11.32
2022-11-02T01:39:58.198Z,11.46
2022-11-02T01:42:27.941Z,11.57
2022-11-02T01:44:57.433Z,11.54
2022-11-02T01:47:29.376Z,11.72
2022-11-02T01:50:01.700Z,11.74
2022-11-02T01:52:34.201Z,11.48
2022-11-02T01:55:07.972Z,11.37
2022-11-02T01:57:37.719Z,11.74
2022-11-02T02:00:08.890Z,11.49
2022-11-02T02:02:50.416Z,11.64
2022-11-02T02:05:23.020Z,11.33
2022-11-02T02:07:53.113Z,11.41
2022-11-02T02:10:21.179Z,11.26
2022-11-02T02:12:50.002Z,11.62
2022-11-02T02:15:23.856Z,11.56
2022-11-02T02:18:01.350Z,11.16
2022-11-02T02:20:46.698Z,10.34
2022-11-02T02:23:34.922Z,10.30
2022-11-02T02:26:34.169Z,10.61
2022-11-02T02:29:12.166Z,11.00
2022-11-02T02:31:47.079Z,11.49
2022-11-02T02:34:20.004Z,11.10
2022-11-02T02:36:52.012Z,11.10
2022-11-02T02:39:25.377Z,11.43
2022-11-02T02:41:59.825Z,11.77
2022-11-02T02:44:35.498Z,11.93
2022-11-02T02:47:07.244Z,11.98
2022-11-02T02:49:41.569Z,11.95
2022-11-02T02:52:10.804Z,12.02
2022-11-02T02:54:41.937Z,12.19
2022-11-02T02:57:12.707Z,12.00
2022-11-02T02:59:43.574Z,11.99
2022-11-02T03:02:18.374Z,11.99
2022-11-02T03:04:46.505Z,11.29
2022-11-02T03:07:20.700Z,11.00
2022-11-02T03:09:58.172Z,10.64
2022-11-02T03:12:38.860Z,10.51
2022-11-02T03:15:14.965Z,10.23
2022-11-02T03:17:50.461Z,10.29
2022-11-02T03:20:26.686Z,10.53
2022-11-02T03:23:07.865Z,10.95
2022-11-02T03:25:43.172Z,10.99
2022-11-02T03:28:18.409Z,11.68
2022-11-02T03:30:54.016Z,11.58
2022-11-02T03:33:30.432Z,11.56
2022-11-02T03:36:07.411Z,11.23
2022-11-02T03:38:42.565Z,11.12
2022-11-02T03:41:12.358Z,11.13
2022-11-02T03:43:42.912Z,11.39
2022-11-02T03:46:14.487Z,11.39
2022-11-02T03:48:46.124Z,10.94
2022-11-02T03:51:19.100Z,11.50
2022-11-02T03:53:51.837Z,11.17
2022-11-02T03:56:25.816Z,10.93
2022-11-02T03:58:54.459Z,10.91
2022-11-02T04:01:24.107Z,11.28
2022-11-02T04:03:52.775Z,10.71
2022-11-02T04:06:20.715Z,10.93
2022-11-02T04:08:50.565Z,10.94
2022-11-02T04:11:38.422Z,10.74
2022-11-02T04:14:28.018Z,10.97
2022-11-02T04:17:12.723Z,10.57
2022-11-02T04:19:48.669Z,10.73
2022-11-02T04:22:35.736Z,10.69
2022-11-02T04:25:18.705Z,10.51
2022-11-02T04:28:10.540Z,10.62
2022-11-02T04:31:07.260Z,10.98
2022-11-02T04:33:40.624Z,11.27
2022-11-02T04:36:19.292Z,11.61
2022-11-02T04:38:51.758Z,11.81
2022-11-02T04:41:44.877Z,11.33
2022-11-02T04:44:18.448Z,11.49
2022-11-02T04:46:59.539Z,10.43
2022-11-02T04:49:32.753Z,9.84
2022-11-02T04:52:00.658Z,9.78
2022-11-02T04:54:31.999Z,9.90
2022-11-02T04:57:03.303Z,10.04
2022-11-02T04:59:32.929Z,9.77
2022-11-02T05:02:00.697Z,9.97
2022-11-02T05:04:29.174Z,9.90
2022-11-02T05:07:01.599Z,9.85
2022-11-02T05:09:31.893Z,10.62
2022-11-02T05:12:01.708Z,10.07
2022-11-02T05:14:29.670Z,10.02
2022-11-02T05:16:58.811Z,10.07
2022-11-02T05:19:26.937Z,10.12
2022-11-02T05:21:55.345Z,10.10
2022-11-02T05:24:26.529Z,10.05
2022-11-02T05:26:54.515Z,10.40
2022-11-02T05:29:25.327Z,9.87
2022-11-02T05:31:53.754Z,9.72
2022-11-02T05:34:22.070Z,9.87
2022-11-02T05:36:50.833Z,9.83
2022-11-02T05:39:18.696Z,9.95
2022-11-02T05:41:50.299Z,9.87
2022-11-02T05:44:18.222Z,10.47
2022-11-02T05:46:46.402Z,10.73
2022-11-02T05:49:14.173Z,10.62
2022-11-02T05:51:41.986Z,10.98
2022-11-02T05:54:09.699Z,10.98
2022-11-02T05:56:37.697Z,10.85
2022-11-02T05:59:09.212Z,10.84
2022-11-02T06:01:37.203Z,10.48
2022-11-02T06:04:05.430Z,10.61
2022-11-02T06:06:33.230Z,10.98
2022-11-02T06:09:06.741Z,10.34
2022-11-02T06:11:34.995Z,10.99
2022-11-02T06:14:03.638Z,11.29
2022-11-02T06:16:32.889Z,11.52
2022-11-02T06:19:00.826Z,11.65
2022-11-02T06:21:28.917Z,11.77
2022-11-02T06:23:58.850Z,11.89
2022-11-02T06:26:26.638Z,11.96
2022-11-02T06:28:56.487Z,12.01
2022-11-02T06:31:24.432Z,12.16
2022-11-02T06:33:53.526Z,12.27
2022-11-02T06:36:21.561Z,12.33
2022-11-02T06:38:52.189Z,12.13
2022-11-02T06:41:19.900Z,12.43
2022-11-02T06:43:47.682Z,12.38
2022-11-02T06:46:15.544Z,12.49
2022-11-02T06:48:43.441Z,12.67
2022-11-02T06:51:12.604Z,12.63
2022-11-02T06:53:42.849Z,12.91
2022-11-02T06:56:12.304Z,13.28
2022-11-02T06:58:39.997Z,13.43
2022-11-02T07:01:09.766Z,13.33
2022-11-02T07:03:37.747Z,12.93
2022-11-02T07:06:09.792Z,13.00
2022-11-02T07:08:42.383Z,13.03
2022-11-02T07:11:14.149Z,13.29
2022-11-02T07:13:44.776Z,13.20
2022-11-02T07:16:12.850Z,13.31
2022-11-02T07:18:41.566Z,13.55
2022-11-02T07:21:11.368Z,13.64
2022-11-02T07:23:39.224Z,13.86
2022-11-02T07:26:08.363Z,13.89
2022-11-02T07:28:38.121Z,13.96
2022-11-02T07:31:06.401Z,13.76
2022-11-02T07:33:34.104Z,14.10
2022-11-02T07:36:03.899Z,13.94
2022-11-02T07:38:31.670Z,14.20
2022-11-02T07:40:59.611Z,14.30
2022-11-02T07:43:29.585Z,14.29
2022-11-02T07:46:05.955Z,14.41
2022-11-02T07:48:35.746Z,14.43
2022-11-02T07:51:07.617Z,14.59
2022-11-02T07:53:35.592Z,14.40
2022-11-02T07:56:03.700Z,13.87
2022-11-02T07:58:33.116Z,14.10
2022-11-02T08:01:03.519Z,14.22
2022-11-02T08:03:31.313Z,14.31
2022-11-02T08:06:02.172Z,14.30
2022-11-02T08:08:30.095Z,14.48
2022-11-02T08:11:05.682Z,14.59
2022-11-02T08:13:35.354Z,14.71
2022-11-02T08:16:03.256Z,14.70
2022-11-02T08:18:31.580Z,15.06
2022-11-02T08:21:00.922Z,14.87
2022-11-02T08:23:28.682Z,14.97
2022-11-02T08:25:59.113Z,14.94
2022-11-02T08:28:31.020Z,15.14
2022-11-02T08:31:00.336Z,15.25
2022-11-02T08:33:30.464Z,15.06
2022-11-02T08:40:24.981Z,15.25
2022-11-02T08:42:56.999Z,15.18
2022-11-02T08:45:24.848Z,15.44
2022-11-02T08:47:53.925Z,15.52
2022-11-02T08:50:22.979Z,15.54
2022-11-02T08:52:50.831Z,15.38
2022-11-02T08:55:19.076Z,15.30
2022-11-02T08:57:47.692Z,15.54
2022-11-02T09:00:16.448Z,15.59
2022-11-02T09:02:45.139Z,15.70
2022-11-02T09:05:14.355Z,15.68
2022-11-02T09:07:42.311Z,15.60
2022-11-02T09:10:10.874Z,15.53
2022-11-02T09:12:38.857Z,15.56
2022-11-02T09:15:07.376Z,15.52
2022-11-02T09:17:35.075Z,15.50
2022-11-02T09:20:02.873Z,15.36
2022-11-02T09:22:31.960Z,15.58
2022-11-02T09:24:59.917Z,15.40
2022-11-02T09:27:27.690Z,15.78
2022-11-02T09:29:55.408Z,15.55
2022-11-02T09:32:23.215Z,15.60
2022-11-02T09:34:52.147Z,15.97
2022-11-02T09:37:20.064Z,16.15
2022-11-02T09:39:51.650Z,16.10
2022-11-02T09:42:24.007Z,16.31
2022-11-02T09:44:57.956Z,16.04
2022-11-02T09:50:22.022Z,15.61
2022-11-02T09:52:57.755Z,15.96
2022-11-02T09:55:33.210Z,15.84
2022-11-02T09:58:06.879Z,16.16
2022-11-02T10:00:40.901Z,15.91
2022-11-02T10:03:18.014Z,16.37
2022-11-02T10:05:51.257Z,16.42
2022-11-02T10:08:37.713Z,16.31
2022-11-02T10:11:20.565Z,16.12
2022-11-02T10:13:56.795Z,16.07
2022-11-02T10:16:32.244Z,16.40
2022-11-02T10:19:00.175Z,16.55
2022-11-02T10:21:33.611Z,16.48
2022-11-02T10:24:10.307Z,16.30
2022-11-02T10:26:43.523Z,16.50
2022-11-02T10:29:18.108Z,16.37
2022-11-02T10:31:46.652Z,16.39
2022-11-02T10:34:23.715Z,16.21
2022-11-02T10:37:02.060Z,16.31
2022-11-02T10:39:38.565Z,16.37
2022-11-02T10:42:36.576Z,15.83
2022-11-02T10:45:21.404Z,15.99
2022-11-02T10:48:02.196Z,16.23
2022-11-02T10:50:41.741Z,15.86
2022-11-02T10:53:39.665Z,15.56
2022-11-02T10:56:13.551Z,15.88
2022-11-02T10:58:46.962Z,15.88
2022-11-02T11:01:14.898Z,16.37
2022-11-02T11:03:59.873Z,16.91
2022-11-02T11:06:31.541Z,16.88
2022-11-02T11:09:07.362Z,16.91
2022-11-02T11:11:38.498Z,15.98
2022-11-02T11:19:53.217Z,16.30
2022-11-02T11:22:27.250Z,16.54
2022-11-02T11:25:17.073Z,16.72
2022-11-02T11:27:46.224Z,17.10
2022-11-02T11:30:54.131Z,16.88
2022-11-02T11:33:17.957Z,17.39
2022-11-02T11:35:49.917Z,17.80
2022-11-02T11:38:20.395Z,18.04
2022-11-02T11:40:53.678Z,18.03
2022-11-02T11:43:24.417Z,18.35
2022-11-02T11:46:05.765Z,18.25
2022-11-02T11:48:39.601Z,18.89
2022-11-02T11:51:32.239Z,18.63
2022-11-02T11:54:20.843Z,18.36
2022-11-02T11:56:49.811Z,18.86
2022-11-02T11:59:22.002Z,17.84
2022-11-02T12:01:54.536Z,17.78
2022-11-02T12:04:34.626Z,18.05
2022-11-02T12:07:20.507Z,17.28
2022-11-02T12:10:00.309Z,17.63
2022-11-02T12:12:40.167Z,18.18
2022-11-02T12:15:26.348Z,18.06
2022-11-02T12:18:09.161Z,18.39
2022-11-02T12:20:51.790Z,18.97
2022-11-02T12:23:33.225Z,19.32
2022-11-02T12:26:17.555Z,19.24
2022-11-02T12:29:00.913Z,19.17
2022-11-02T12:31:36.251Z,18.94
2022-11-02T12:34:41.233Z,19.27
2022-11-02T12:37:37.175Z,19.35
2022-11-02T12:40:21.925Z,19.43
2022-11-02T12:42:57.085Z,19.04
2022-11-02T12:45:42.298Z,18.93
2022-11-02T12:48:15.620Z,19.08
2022-11-02T12:50:54.695Z,18.63
2022-11-02T12:53:41.708Z,18.48
2022-11-02T12:56:14.823Z,18.27
2022-11-02T12:58:43.004Z,18.67
2022-11-02T13:01:18.454Z,19.03
2022-11-02T13:03:53.091Z,19.04
2022-11-02T13:06:26.728Z,18.87
2022-11-02T13:08:58.782Z,18.50
2022-11-02T13:11:33.324Z,18.56
2022-11-02T13:14:03.579Z,18.17
2022-11-02T13:16:40.655Z,18.31
2022-11-02T13:19:16.326Z,18.38
2022-11-02T13:21:50.530Z,18.04
2022-11-02T13:24:23.950Z,17.44
2022-11-02T13:26:57.429Z,16.87
2022-11-02T13:29:38.693Z,17.29
2022-11-02T13:32:15.481Z,17.38
2022-11-02T13:34:46.844Z,17.55
2022-11-02T13:37:22.301Z,17.33
2022-11-02T13:39:53.619Z,17.78
2022-11-02T13:42:50.850Z,17.35
2022-11-02T13:45:38.751Z,17.38
2022-11-02T13:48:24.874Z,16.80
2022-11-02T13:50:57.425Z,17.43
2022-11-02T13:53:31.834Z,17.56
2022-11-02T13:56:02.352Z,17.10
2022-11-02T13:58:35.010Z,17.01
2022-11-02T14:01:04.987Z,16.86
2022-11-02T14:03:42.315Z,16.69
2022-11-02T14:06:12.594Z,17.08
2022-11-02T14:08:48.300Z,16.53
2022-11-02T14:11:28.918Z,16.75
2022-11-02T14:14:16.256Z,17.21
2022-11-02T14:16:46.284Z,17.32
2022-11-02T14:19:21.895Z,17.28
2022-11-02T14:22:10.205Z,17.15
2022-11-02T14:25:14.614Z,16.38
2022-11-02T14:27:42.554Z,16.48
2022-11-02T14:30:46.365Z,16.87
2022-11-02T14:33:30.223Z,17.11
2022-11-02T14:36:01.487Z,16.88
2022-11-02T14:38:46.425Z,16.65
2022-11-02T14:41:38.676Z,16.53
2022-11-02T14:44:27.874Z,16.45
2022-11-02T14:46:58.973Z,16.31
2022-11-02T14:49:29.521Z,16.60
2022-11-02T14:52:04.515Z,16.24
2022-11-02T14:54:46.881Z,16.40
2022-11-02T14:57:24.770Z,15.96
2022-11-02T14:59:56.319Z,16.01
2022-11-02T15:02:29.821Z,16.12
2022-11-02T15:05:00.384Z,16.11
2022-11-02T15:07:35.731Z,16.10
2022-11-02T15:10:06.661Z,16.26
2022-11-02T15:12:40.844Z,16.04
2022-11-02T15:15:31.301Z,16.07
2022-11-02T15:18:22.692Z,15.99
2022-11-02T15:21:27.055Z,15.62
2022-11-02T15:24:17.417Z,15.53
2022-11-02T15:26:52.097Z,15.62
2022-11-02T15:29:34.355Z,15.65
2022-11-02T15:32:04.239Z,15.52
2022-11-02T15:34:37.078Z,15.37
2022-11-02T15:37:05.652Z,15.29
2022-11-02T15:39:34.063Z,14.77
2022-11-02T15:42:13.217Z,14.87
2022-11-02T15:45:46.808Z,14.60
2022-11-02T15:48:32.230Z,14.78
2022-11-02T15:51:09.832Z,14.58
2022-11-02T15:54:02.059Z,14.46
2022-11-02T15:56:43.662Z,14.38
2022-11-02T15:59:39.465Z,13.90
2022-11-02T16:02:21.144Z,13.59
2022-11-02T16:04:55.569Z,13.77
2022-11-02T16:07:33.214Z,13.71
2022-11-02T16:10:27.417Z,13.60
2022-11-02T16:12:59.900Z,13.59
2022-11-02T16:15:28.369Z,13.54
2022-11-02T16:18:01.514Z,13.57
2022-11-02T16:20:35.330Z,13.34
2022-11-02T16:23:05.001Z,13.26
2022-11-02T16:25:39.933Z,13.28
2022-11-02T16:28:20.541Z,13.17
2022-11-02T16:31:12.447Z,13.31
2022-11-02T16:33:48.148Z,13.20
2022-11-02T16:36:19.328Z,12.97
2022-11-02T16:38:49.891Z,12.84
2022-11-02T16:41:18.174Z,12.43
2022-11-02T16:43:51.127Z,12.34
2022-11-02T16:46:29.407Z,12.65
2022-11-02T16:49:14.962Z,12.66
2022-11-02T16:51:49.965Z,12.69
2022-11-02T16:54:24.811Z,12.66
2022-11-02T16:56:56.869Z,12.78
2022-11-02T16:59:25.492Z,12.78
2022-11-02T17:01:59.994Z,12.27
2022-11-02T17:04:31.954Z,11.91
2022-11-02T17:07:12.388Z,11.98
2022-11-02T17:09:40.846Z,12.01
2022-11-02T17:12:14.207Z,11.74
2022-11-02T17:14:44.181Z,11.51
2022-11-02T17:17:35.874Z,11.77
2022-11-02T17:20:18.122Z,12.00
2022-11-02T17:22:57.576Z,11.16
2022-11-02T17:25:27.627Z,11.50
2022-11-02T17:27:56.860Z,11.69
2022-11-02T17:30:44.772Z,11.97
2022-11-02T17:33:28.566Z,11.88
2022-11-02T17:36:04.980Z,11.77
2022-11-02T17:38:33.119Z,11.80
2022-11-02T17:41:01.772Z,11.83
2022-11-02T17:43:28.607Z,11.67
2022-11-02T17:45:59.412Z,11.43
2022-11-02T17:48:29.359Z,11.57
2022-11-02T17:51:00.579Z,11.52
2022-11-02T17:53:28.495Z,11.41
2022-11-02T17:55:56.585Z,10.81
2022-11-02T17:58:24.355Z,10.41
2022-11-02T18:00:54.011Z,10.89
2022-11-02T18:03:25.360Z,11.21
2022-11-02T18:05:59.870Z,10.89
2022-11-02T18:08:30.154Z,10.81
2022-11-02T18:10:58.052Z,11.09
2022-11-02T18:13:25.891Z,10.91
2022-11-02T18:15:53.660Z,10.79
2022-11-02T18:18:21.349Z,11.01
2022-11-02T18:20:49.284Z,11.12
2022-11-02T18:23:19.711Z,11.20
2022-11-02T18:25:49.045Z,10.87
2022-11-02T18:28:16.886Z,10.17
2022-11-02T18:30:45.044Z,10.55
2022-11-02T18:33:14.049Z,10.49
2022-11-02T18:35:43.247Z,10.30
2022-11-02T18:38:11.735Z,10.69
2022-11-02T18:40:39.879Z,10.92
2022-11-02T18:43:11.386Z,10.89
2022-11-02T18:45:39.106Z,10.16
2022-11-02T18:48:07.894Z,9.64
2022-11-02T18:50:35.874Z,9.96
2022-11-02T18:53:03.611Z,10.31
2022-11-02T18:55:31.308Z,10.59
2022-11-02T18:57:59.001Z,10.65
2022-11-02T19:00:28.036Z,10.66
2022-11-02T19:02:55.761Z,10.78
2022-11-02T19:05:37.413Z,10.76
2022-11-02T19:08:22.843Z,10.57
2022-11-02T19:10:50.591Z,10.30
2022-11-02T19:13:18.284Z,10.29
2022-11-02T19:15:47.370Z,10.12
2022-11-02T19:18:15.391Z,10.06
2022-11-02T19:20:43.457Z,10.20
2022-11-02T19:23:11.745Z,10.08
2022-11-02T19:25:39.493Z,10.21
2022-11-02T19:28:07.613Z,10.19
2022-11-02T19:30:38.395Z,10.29
2022-11-02T19:33:08.423Z,10.30
2022-11-02T19:35:36.335Z,10.27
2022-11-02T19:38:04.129Z,10.32
2022-11-02T19:40:31.822Z,10.32
2022-11-02T19:42:59.538Z,10.37
2022-11-02T19:45:27.520Z,10.16
2022-11-02T19:47:55.314Z,9.40
2022-11-02T19:50:24.354Z,9.58
2022-11-02T19:52:52.083Z,9.90
2022-11-02T19:55:22.687Z,10.33
2022-11-02T19:57:50.435Z,9.88
2022-11-02T20:00:18.671Z,10.12
2022-11-02T20:02:46.484Z,9.90
2022-11-02T20:05:14.588Z,10.55
2022-11-02T20:07:43.644Z,10.92
2022-11-02T20:10:11.422Z,11.10
2022-11-02T20:12:39.170Z,10.88
2022-11-02T20:15:10.790Z,10.13
2022-11-02T20:17:58.303Z,10.40
2022-11-02T20:20:26.719Z,10.59
2022-11-02T20:22:56.476Z,10.90
2022-11-02T20:25:25.674Z,11.04
2022-11-02T20:27:53.734Z,11.06
2022-11-02T20:30:22.405Z,10.40
2022-11-02T20:32:50.491Z,9.88
2022-11-02T20:35:22.711Z,10.30
2022-11-02T20:37:50.434Z,10.85
2022-11-02T20:40:19.535Z,10.74
2022-11-02T20:42:49.910Z,10.64
2022-11-02T20:45:17.831Z,10.98
2022-11-02T20:47:45.596Z,10.97
2022-11-02T20:50:16.627Z,11.04
2022-11-02T20:52:46.374Z,10.68
2022-11-02T20:55:14.142Z,11.00
2022-11-02T20:57:43.222Z,11.11
2022-11-02T21:00:13.183Z,10.78
2022-11-02T21:02:40.956Z,9.91
2022-11-02T21:05:09.500Z,9.90
2022-11-02T21:07:37.239Z,9.68
2022-11-02T21:10:05.518Z,10.16
2022-11-02T21:12:50.761Z,9.89
2022-11-02T21:15:22.201Z,9.75
2022-11-02T21:17:49.874Z,9.96
2022-11-02T21:20:33.728Z,9.90
2022-11-02T21:23:02.765Z,9.69
2022-11-02T21:25:31.730Z,9.37
2022-11-02T21:27:59.427Z,9.11
2022-11-02T21:30:30.898Z,10.10
2022-11-02T21:32:58.957Z,10.45
2022-11-02T21:35:26.790Z,9.24
2022-11-02T21:37:59.280Z,9.98
2022-11-02T21:40:30.120Z,10.02
2022-11-02T21:42:57.810Z,10.49
2022-11-02T21:45:26.459Z,10.58
2022-11-02T21:47:55.607Z,10.70
2022-11-02T21:50:23.809Z,10.59
2022-11-02T21:52:51.488Z,10.04
2022-11-02T21:55:19.213Z,9.93
2022-11-02T21:57:49.023Z,9.68
2022-11-02T22:00:17.182Z,10.26
2022-11-02T22:02:43.994Z,10.37
2022-11-02T22:05:33.555Z,10.27
2022-11-02T22:08:19.006Z,10.60
2022-11-02T22:10:46.792Z,10.82
2022-11-02T22:13:31.930Z,10.93
2022-11-02T22:15:59.698Z,10.32
2022-11-02T22:18:27.413Z,9.95
2022-11-02T22:20:57.936Z,10.22
2022-11-02T22:23:25.670Z,10.15
2022-11-02T22:25:58.788Z,9.89
2022-11-02T22:28:29.743Z,9.91
2022-11-02T22:30:57.475Z,10.10
2022-11-02T22:33:25.617Z,10.32
2022-11-02T22:35:53.490Z,10.59
2022-11-02T22:38:40.150Z,10.83
2022-11-02T22:41:07.942Z,10.76
2022-11-02T22:43:35.886Z,10.68
2022-11-02T22:46:05.060Z,10.74
2022-11-02T22:48:33.191Z,10.88
2022-11-02T22:51:00.956Z,11.01
2022-11-02T22:53:30.051Z,10.82
2022-11-02T22:55:59.447Z,10.76
2022-11-02T22:58:28.623Z,10.43
2022-11-02T23:00:56.451Z,10.35
2022-11-02T23:03:24.411Z,10.83
2022-11-02T23:05:52.571Z,10.43
2022-11-02T23:08:20.363Z,10.73
2022-11-02T23:11:12.757Z,10.54
2022-11-02T23:13:40.921Z,10.29
2022-11-02T23:16:24.376Z,10.06
2022-11-02T23:19:15.022Z,10.26
2022-11-02T23:21:44.854Z,9.92
2022-11-02T23:24:27.025Z,9.77
2022-11-02T23:26:57.123Z,9.72
2022-11-02T23:29:42.396Z,9.71
2022-11-02T23:32:27.585Z,9.86
2022-11-02T23:35:14.084Z,9.66
2022-11-02T23:37:45.738Z,10.30
2022-11-02T23:40:15.415Z,10.61
2022-11-02T23:42:44.625Z,10.66
2022-11-02T23:45:12.983Z,10.65
2022-11-02T23:47:59.871Z,10.82
2022-11-02T23:50:49.095Z,10.85
2022-11-02T23:53:36.543Z,10.84
2022-11-02T23:56:22.605Z,10.79
2022-11-02T23:59:06.380Z,10.48
